sensor_id;sensor_type;location;lat;lon;timestamp;P1;durP1;ratioP1;P2;durP2;ratioP2
24521;SDS011;12680;57.804;12.190;2023-04-03T00:00:37;4.63;;;1.20;;
24521;SDS011;12680;57.804;12.190;2023-04-03T00:03:04;2.17;;;1.10;;
24521;SDS011;12680;57.804;12.190;2023-04-03T00:05:31;4.22;;;1.15;;
24521;SDS011;12680;57.804;12.190;2023-04-03T00:07:58;1.38;;;1.00;;
24521;SDS011;12680;57.804;12.190;2023-04-03T00:10:25;3.00;;;1.13;;
24521;SDS011;12680;57.804;12.190;2023-04-03T00:12:52;4.00;;;1.10;;
24521;SDS011;12680;57.804;12.190;2023-04-03T00:15:19;2.13;;;0.93;;
24521;SDS011;12680;57.804;12.190;2023-04-03T00:17:46;2.45;;;0.95;;
24521;SDS011;12680;57.804;12.190;2023-04-03T00:20:12;2.08;;;1.13;;
24521;SDS011;12680;57.804;12.190;2023-04-03T00:22:39;2.05;;;1.10;;
24521;SDS011;12680;57.804;12.190;2023-04-03T00:25:06;1.15;;;1.00;;
24521;SDS011;12680;57.804;12.190;2023-04-03T00:27:38;2.22;;;1.10;;
24521;SDS011;12680;57.804;12.190;2023-04-03T00:30:06;2.45;;;1.10;;
24521;SDS011;12680;57.804;12.190;2023-04-03T00:32:34;2.22;;;1.00;;
24521;SDS011;12680;57.804;12.190;2023-04-03T00:35:01;1.52;;;1.05;;
24521;SDS011;12680;57.804;12.190;2023-04-03T00:37:28;2.58;;;0.90;;
24521;SDS011;12680;57.804;12.190;2023-04-03T00:39:55;2.90;;;1.00;;
24521;SDS011;12680;57.804;12.190;2023-04-03T00:42:22;2.63;;;0.95;;
24521;SDS011;12680;57.804;12.190;2023-04-03T00:47:19;3.05;;;1.15;;
24521;SDS011;12680;57.804;12.190;2023-04-03T00:49:45;2.35;;;1.15;;
24521;SDS011;12680;57.804;12.190;2023-04-03T00:52:13;3.35;;;1.20;;
24521;SDS011;12680;57.804;12.190;2023-04-03T00:57:12;2.15;;;1.08;;
24521;SDS011;12680;57.804;12.190;2023-04-03T00:59:46;1.92;;;1.38;;
24521;SDS011;12680;57.804;12.190;2023-04-03T01:02:18;2.38;;;1.05;;
24521;SDS011;12680;57.804;12.190;2023-04-03T01:04:44;7.95;;;1.55;;
24521;SDS011;12680;57.804;12.190;2023-04-03T01:07:17;1.70;;;1.10;;
24521;SDS011;12680;57.804;12.190;2023-04-03T01:09:47;2.30;;;0.93;;
24521;SDS011;12680;57.804;12.190;2023-04-03T01:12:23;3.60;;;1.10;;
24521;SDS011;12680;57.804;12.190;2023-04-03T01:14:52;2.33;;;0.95;;
24521;SDS011;12680;57.804;12.190;2023-04-03T01:17:41;1.58;;;1.00;;
24521;SDS011;12680;57.804;12.190;2023-04-03T01:25:27;2.83;;;0.95;;
24521;SDS011;12680;57.804;12.190;2023-04-03T01:27:54;1.83;;;1.15;;
24521;SDS011;12680;57.804;12.190;2023-04-03T01:30:24;1.77;;;1.30;;
24521;SDS011;12680;57.804;12.190;2023-04-03T01:32:56;2.67;;;0.80;;
24521;SDS011;12680;57.804;12.190;2023-04-03T01:35:23;3.60;;;1.20;;
24521;SDS011;12680;57.804;12.190;2023-04-03T01:37:50;1.17;;;0.75;;
24521;SDS011;12680;57.804;12.190;2023-04-03T01:40:17;1.95;;;1.13;;
24521;SDS011;12680;57.804;12.190;2023-04-03T01:42:44;1.50;;;0.95;;
24521;SDS011;12680;57.804;12.190;2023-04-03T01:45:11;2.55;;;1.00;;
24521;SDS011;12680;57.804;12.190;2023-04-03T01:47:38;1.30;;;0.80;;
24521;SDS011;12680;57.804;12.190;2023-04-03T01:50:05;1.00;;;0.70;;
24521;SDS011;12680;57.804;12.190;2023-04-03T01:52:32;3.58;;;1.27;;
24521;SDS011;12680;57.804;12.190;2023-04-03T01:54:58;1.42;;;0.90;;
24521;SDS011;12680;57.804;12.190;2023-04-03T01:57:25;2.25;;;0.95;;
24521;SDS011;12680;57.804;12.190;2023-04-03T01:59:52;1.95;;;1.10;;
24521;SDS011;12680;57.804;12.190;2023-04-03T02:02:18;3.58;;;1.08;;
24521;SDS011;12680;57.804;12.190;2023-04-03T02:04:46;2.08;;;0.90;;
24521;SDS011;12680;57.804;12.190;2023-04-03T02:07:13;1.02;;;0.70;;
24521;SDS011;12680;57.804;12.190;2023-04-03T02:09:40;1.95;;;1.08;;
24521;SDS011;12680;57.804;12.190;2023-04-03T02:12:06;2.25;;;1.10;;
24521;SDS011;12680;57.804;12.190;2023-04-03T02:14:33;2.47;;;0.90;;
24521;SDS011;12680;57.804;12.190;2023-04-03T02:17:01;1.85;;;1.08;;
24521;SDS011;12680;57.804;12.190;2023-04-03T02:19:31;6.25;;;0.80;;
24521;SDS011;12680;57.804;12.190;2023-04-03T02:21:57;1.20;;;0.75;;
24521;SDS011;12680;57.804;12.190;2023-04-03T02:24:24;2.40;;;0.85;;
24521;SDS011;12680;57.804;12.190;2023-04-03T02:26:51;1.30;;;0.95;;
24521;SDS011;12680;57.804;12.190;2023-04-03T02:29:18;3.00;;;0.80;;
24521;SDS011;12680;57.804;12.190;2023-04-03T02:31:44;2.08;;;1.00;;
24521;SDS011;12680;57.804;12.190;2023-04-03T02:34:11;1.20;;;0.93;;
24521;SDS011;12680;57.804;12.190;2023-04-03T02:36:38;1.27;;;0.77;;
24521;SDS011;12680;57.804;12.190;2023-04-03T02:39:05;0.88;;;0.75;;
24521;SDS011;12680;57.804;12.190;2023-04-03T02:41:32;0.73;;;0.60;;
24521;SDS011;12680;57.804;12.190;2023-04-03T02:44:01;2.13;;;0.98;;
24521;SDS011;12680;57.804;12.190;2023-04-03T02:46:29;3.38;;;1.10;;
24521;SDS011;12680;57.804;12.190;2023-04-03T02:48:56;2.88;;;1.13;;
24521;SDS011;12680;57.804;12.190;2023-04-03T02:51:23;1.25;;;0.80;;
24521;SDS011;12680;57.804;12.190;2023-04-03T02:53:50;4.45;;;1.23;;
24521;SDS011;12680;57.804;12.190;2023-04-03T02:56:17;1.05;;;0.90;;
24521;SDS011;12680;57.804;12.190;2023-04-03T02:58:45;2.00;;;1.00;;
24521;SDS011;12680;57.804;12.190;2023-04-03T03:01:12;2.28;;;0.80;;
24521;SDS011;12680;57.804;12.190;2023-04-03T03:03:39;5.88;;;1.27;;
24521;SDS011;12680;57.804;12.190;2023-04-03T03:06:07;2.28;;;0.93;;
24521;SDS011;12680;57.804;12.190;2023-04-03T03:08:38;1.08;;;0.57;;
24521;SDS011;12680;57.804;12.190;2023-04-03T03:11:06;2.45;;;0.57;;
24521;SDS011;12680;57.804;12.190;2023-04-03T03:13:33;2.58;;;0.88;;
24521;SDS011;12680;57.804;12.190;2023-04-03T03:16:00;1.55;;;0.90;;
24521;SDS011;12680;57.804;12.190;2023-04-03T03:18:27;1.88;;;0.80;;
24521;SDS011;12680;57.804;12.190;2023-04-03T03:20:55;1.15;;;0.80;;
24521;SDS011;12680;57.804;12.190;2023-04-03T03:23:24;4.30;;;1.15;;
24521;SDS011;12680;57.804;12.190;2023-04-03T03:25:56;0.73;;;0.70;;
24521;SDS011;12680;57.804;12.190;2023-04-03T03:28:24;2.40;;;0.80;;
24521;SDS011;12680;57.804;12.190;2023-04-03T03:30:51;2.08;;;1.02;;
24521;SDS011;12680;57.804;12.190;2023-04-03T03:33:18;2.50;;;0.70;;
24521;SDS011;12680;57.804;12.190;2023-04-03T03:35:45;2.22;;;1.05;;
24521;SDS011;12680;57.804;12.190;2023-04-03T03:38:12;4.38;;;0.80;;
24521;SDS011;12680;57.804;12.190;2023-04-03T03:40:39;1.60;;;0.88;;
24521;SDS011;12680;57.804;12.190;2023-04-03T03:43:05;0.85;;;0.82;;
24521;SDS011;12680;57.804;12.190;2023-04-03T03:45:33;0.73;;;0.60;;
24521;SDS011;12680;57.804;12.190;2023-04-03T03:48:00;1.88;;;0.88;;
24521;SDS011;12680;57.804;12.190;2023-04-03T03:50:29;2.95;;;1.00;;
24521;SDS011;12680;57.804;12.190;2023-04-03T03:52:56;1.02;;;0.80;;
24521;SDS011;12680;57.804;12.190;2023-04-03T03:55:22;1.88;;;0.80;;
24521;SDS011;12680;57.804;12.190;2023-04-03T03:57:49;1.95;;;1.10;;
24521;SDS011;12680;57.804;12.190;2023-04-03T04:00:16;1.73;;;1.10;;
24521;SDS011;12680;57.804;12.190;2023-04-03T04:02:43;3.35;;;0.98;;
24521;SDS011;12680;57.804;12.190;2023-04-03T04:05:10;0.90;;;0.70;;
24521;SDS011;12680;57.804;12.190;2023-04-03T04:07:37;0.85;;;0.80;;
24521;SDS011;12680;57.804;12.190;2023-04-03T04:10:04;3.97;;;1.05;;
24521;SDS011;12680;57.804;12.190;2023-04-03T04:12:31;3.35;;;0.77;;
24521;SDS011;12680;57.804;12.190;2023-04-03T04:14:58;1.08;;;1.00;;
24521;SDS011;12680;57.804;12.190;2023-04-03T04:17:24;3.25;;;0.98;;
24521;SDS011;12680;57.804;12.190;2023-04-03T04:19:51;1.83;;;0.95;;
24521;SDS011;12680;57.804;12.190;2023-04-03T04:22:18;1.95;;;1.05;;
24521;SDS011;12680;57.804;12.190;2023-04-03T04:24:45;2.00;;;1.70;;
24521;SDS011;12680;57.804;12.190;2023-04-03T04:27:11;3.70;;;1.90;;
24521;SDS011;12680;57.804;12.190;2023-04-03T04:29:38;3.63;;;1.08;;
24521;SDS011;12680;57.804;12.190;2023-04-03T04:32:05;1.55;;;1.08;;
24521;SDS011;12680;57.804;12.190;2023-04-03T04:34:32;1.35;;;1.10;;
24521;SDS011;12680;57.804;12.190;2023-04-03T04:36:58;2.15;;;1.10;;
24521;SDS011;12680;57.804;12.190;2023-04-03T04:39:25;2.72;;;1.30;;
24521;SDS011;12680;57.804;12.190;2023-04-03T04:41:52;3.03;;;1.45;;
24521;SDS011;12680;57.804;12.190;2023-04-03T04:44:19;1.35;;;1.15;;
24521;SDS011;12680;57.804;12.190;2023-04-03T04:46:46;2.47;;;1.10;;
24521;SDS011;12680;57.804;12.190;2023-04-03T04:49:13;1.90;;;1.05;;
24521;SDS011;12680;57.804;12.190;2023-04-03T04:51:40;2.15;;;1.20;;
24521;SDS011;12680;57.804;12.190;2023-04-03T04:54:17;1.75;;;1.20;;
24521;SDS011;12680;57.804;12.190;2023-04-03T04:56:44;3.25;;;1.20;;
24521;SDS011;12680;57.804;12.190;2023-04-03T04:59:11;1.98;;;1.08;;
24521;SDS011;12680;57.804;12.190;2023-04-03T05:01:37;4.05;;;1.30;;
24521;SDS011;12680;57.804;12.190;2023-04-03T05:04:04;2.63;;;1.10;;
24521;SDS011;12680;57.804;12.190;2023-04-03T05:06:31;3.03;;;0.95;;
24521;SDS011;12680;57.804;12.190;2023-04-03T05:08:58;2.50;;;1.20;;
24521;SDS011;12680;57.804;12.190;2023-04-03T05:11:25;3.20;;;1.50;;
24521;SDS011;12680;57.804;12.190;2023-04-03T05:13:52;5.40;;;1.50;;
24521;SDS011;12680;57.804;12.190;2023-04-03T05:16:19;3.28;;;1.00;;
24521;SDS011;12680;57.804;12.190;2023-04-03T05:18:46;3.00;;;1.42;;
24521;SDS011;12680;57.804;12.190;2023-04-03T05:21:13;3.97;;;1.25;;
24521;SDS011;12680;57.804;12.190;2023-04-03T05:23:40;2.50;;;1.20;;
24521;SDS011;12680;57.804;12.190;2023-04-03T05:26:07;2.58;;;1.20;;
24521;SDS011;12680;57.804;12.190;2023-04-03T05:28:34;6.80;;;1.38;;
24521;SDS011;12680;57.804;12.190;2023-04-03T05:31:00;1.17;;;1.08;;
24521;SDS011;12680;57.804;12.190;2023-04-03T05:33:27;5.53;;;1.20;;
24521;SDS011;12680;57.804;12.190;2023-04-03T05:35:54;2.97;;;1.10;;
24521;SDS011;12680;57.804;12.190;2023-04-03T05:38:21;2.97;;;0.90;;
24521;SDS011;12680;57.804;12.190;2023-04-03T05:40:48;1.90;;;1.33;;
24521;SDS011;12680;57.804;12.190;2023-04-03T05:43:15;2.55;;;0.82;;
24521;SDS011;12680;57.804;12.190;2023-04-03T05:45:42;1.35;;;0.98;;
24521;SDS011;12680;57.804;12.190;2023-04-03T05:48:12;1.67;;;0.80;;
24521;SDS011;12680;57.804;12.190;2023-04-03T05:50:39;3.85;;;1.30;;
24521;SDS011;12680;57.804;12.190;2023-04-03T05:53:10;3.47;;;1.30;;
24521;SDS011;12680;57.804;12.190;2023-04-03T05:55:41;2.33;;;1.10;;
24521;SDS011;12680;57.804;12.190;2023-04-03T05:58:08;4.10;;;1.30;;
24521;SDS011;12680;57.804;12.190;2023-04-03T06:00:37;0.80;;;0.70;;
24521;SDS011;12680;57.804;12.190;2023-04-03T06:03:03;2.03;;;1.10;;
24521;SDS011;12680;57.804;12.190;2023-04-03T06:05:31;1.33;;;1.00;;
24521;SDS011;12680;57.804;12.190;2023-04-03T06:07:58;5.95;;;1.15;;
24521;SDS011;12680;57.804;12.190;2023-04-03T06:10:25;2.92;;;1.30;;
24521;SDS011;12680;57.804;12.190;2023-04-03T06:12:52;2.72;;;1.10;;
24521;SDS011;12680;57.804;12.190;2023-04-03T06:15:18;3.35;;;1.10;;
24521;SDS011;12680;57.804;12.190;2023-04-03T06:17:46;2.03;;;1.00;;
24521;SDS011;12680;57.804;12.190;2023-04-03T06:20:13;2.38;;;1.25;;
24521;SDS011;12680;57.804;12.190;2023-04-03T06:22:40;1.38;;;1.02;;
24521;SDS011;12680;57.804;12.190;2023-04-03T06:25:08;3.00;;;0.90;;
24521;SDS011;12680;57.804;12.190;2023-04-03T06:27:36;1.48;;;0.80;;
24521;SDS011;12680;57.804;12.190;2023-04-03T06:30:03;4.05;;;1.00;;
24521;SDS011;12680;57.804;12.190;2023-04-03T06:32:32;2.55;;;1.15;;
24521;SDS011;12680;57.804;12.190;2023-04-03T06:34:59;1.83;;;0.90;;
24521;SDS011;12680;57.804;12.190;2023-04-03T06:37:26;2.75;;;1.00;;
24521;SDS011;12680;57.804;12.190;2023-04-03T06:39:55;6.85;;;1.08;;
24521;SDS011;12680;57.804;12.190;2023-04-03T06:42:22;4.25;;;1.40;;
24521;SDS011;12680;57.804;12.190;2023-04-03T06:44:49;2.15;;;1.10;;
24521;SDS011;12680;57.804;12.190;2023-04-03T06:47:16;2.20;;;1.20;;
24521;SDS011;12680;57.804;12.190;2023-04-03T06:49:44;2.92;;;1.05;;
24521;SDS011;12680;57.804;12.190;2023-04-03T06:52:11;1.52;;;1.00;;
24521;SDS011;12680;57.804;12.190;2023-04-03T06:54:38;2.15;;;1.10;;
24521;SDS011;12680;57.804;12.190;2023-04-03T06:57:06;2.83;;;1.30;;
24521;SDS011;12680;57.804;12.190;2023-04-03T06:59:34;3.22;;;0.95;;
24521;SDS011;12680;57.804;12.190;2023-04-03T07:02:02;3.90;;;1.00;;
24521;SDS011;12680;57.804;12.190;2023-04-03T07:04:30;1.17;;;0.85;;
24521;SDS011;12680;57.804;12.190;2023-04-03T07:06:57;1.63;;;0.90;;
24521;SDS011;12680;57.804;12.190;2023-04-03T07:09:23;2.85;;;1.20;;
24521;SDS011;12680;57.804;12.190;2023-04-03T07:11:50;2.20;;;1.05;;
24521;SDS011;12680;57.804;12.190;2023-04-03T07:14:17;1.35;;;0.90;;
24521;SDS011;12680;57.804;12.190;2023-04-03T07:16:44;3.22;;;1.10;;
24521;SDS011;12680;57.804;12.190;2023-04-03T07:19:11;1.65;;;0.93;;
24521;SDS011;12680;57.804;12.190;2023-04-03T07:21:37;4.03;;;0.98;;
24521;SDS011;12680;57.804;12.190;2023-04-03T07:24:04;1.70;;;1.05;;
24521;SDS011;12680;57.804;12.190;2023-04-03T07:26:34;9.75;;;1.30;;
24521;SDS011;12680;57.804;12.190;2023-04-03T07:29:01;1.30;;;0.90;;
24521;SDS011;12680;57.804;12.190;2023-04-03T07:31:28;0.73;;;0.63;;
24521;SDS011;12680;57.804;12.190;2023-04-03T07:33:55;1.63;;;0.73;;
24521;SDS011;12680;57.804;12.190;2023-04-03T07:36:22;1.95;;;1.02;;
24521;SDS011;12680;57.804;12.190;2023-04-03T07:38:49;2.72;;;0.82;;
24521;SDS011;12680;57.804;12.190;2023-04-03T07:41:16;1.80;;;0.60;;
24521;SDS011;12680;57.804;12.190;2023-04-03T07:43:44;2.47;;;0.93;;
24521;SDS011;12680;57.804;12.190;2023-04-03T07:46:12;2.85;;;0.85;;
24521;SDS011;12680;57.804;12.190;2023-04-03T07:48:39;1.48;;;0.68;;
24521;SDS011;12680;57.804;12.190;2023-04-03T07:51:06;1.90;;;0.95;;
24521;SDS011;12680;57.804;12.190;2023-04-03T07:53:33;2.53;;;1.08;;
24521;SDS011;12680;57.804;12.190;2023-04-03T07:56:00;4.03;;;0.73;;
24521;SDS011;12680;57.804;12.190;2023-04-03T07:58:29;1.35;;;0.70;;
24521;SDS011;12680;57.804;12.190;2023-04-03T08:00:56;3.08;;;0.88;;
24521;SDS011;12680;57.804;12.190;2023-04-03T08:03:23;3.35;;;0.90;;
24521;SDS011;12680;57.804;12.190;2023-04-03T08:05:50;3.38;;;0.73;;
24521;SDS011;12680;57.804;12.190;2023-04-03T08:08:19;2.17;;;0.60;;
24521;SDS011;12680;57.804;12.190;2023-04-03T08:10:51;3.10;;;0.75;;
24521;SDS011;12680;57.804;12.190;2023-04-03T08:15:46;1.42;;;0.75;;
24521;SDS011;12680;57.804;12.190;2023-04-03T08:18:14;3.58;;;0.90;;
24521;SDS011;12680;57.804;12.190;2023-04-03T08:20:41;3.78;;;1.15;;
24521;SDS011;12680;57.804;12.190;2023-04-03T08:23:08;1.65;;;0.80;;
24521;SDS011;12680;57.804;12.190;2023-04-03T08:25:40;1.48;;;0.90;;
24521;SDS011;12680;57.804;12.190;2023-04-03T08:28:08;7.05;;;0.77;;
24521;SDS011;12680;57.804;12.190;2023-04-03T08:30:40;1.80;;;0.60;;
24521;SDS011;12680;57.804;12.190;2023-04-03T08:35:39;2.97;;;0.80;;
24521;SDS011;12680;57.804;12.190;2023-04-03T08:38:08;1.63;;;0.70;;
24521;SDS011;12680;57.804;12.190;2023-04-03T08:40:36;3.88;;;0.85;;
24521;SDS011;12680;57.804;12.190;2023-04-03T08:43:09;4.57;;;1.13;;
24521;SDS011;12680;57.804;12.190;2023-04-03T08:45:55;1.60;;;0.63;;
24521;SDS011;12680;57.804;12.190;2023-04-03T08:48:27;2.70;;;0.70;;
24521;SDS011;12680;57.804;12.190;2023-04-03T08:51:00;1.10;;;1.00;;
24521;SDS011;12680;57.804;12.190;2023-04-03T08:53:38;3.08;;;0.70;;
24521;SDS011;12680;57.804;12.190;2023-04-03T08:56:08;2.28;;;0.65;;
24521;SDS011;12680;57.804;12.190;2023-04-03T08:58:41;0.82;;;0.45;;
24521;SDS011;12680;57.804;12.190;2023-04-03T09:01:21;1.48;;;0.50;;
24521;SDS011;12680;57.804;12.190;2023-04-03T09:06:23;1.70;;;0.65;;
24521;SDS011;12680;57.804;12.190;2023-04-03T09:09:12;2.80;;;0.70;;
24521;SDS011;12680;57.804;12.190;2023-04-03T09:11:55;1.80;;;0.90;;
24521;SDS011;12680;57.804;12.190;2023-04-03T09:17:38;3.33;;;0.88;;
24521;SDS011;12680;57.804;12.190;2023-04-03T09:20:26;1.38;;;0.50;;
24521;SDS011;12680;57.804;12.190;2023-04-03T09:23:21;2.60;;;0.52;;
24521;SDS011;12680;57.804;12.190;2023-04-03T09:26:09;2.20;;;0.60;;
24521;SDS011;12680;57.804;12.190;2023-04-03T09:28:44;0.88;;;0.52;;
24521;SDS011;12680;57.804;12.190;2023-04-03T09:33:46;0.82;;;0.50;;
24521;SDS011;12680;57.804;12.190;2023-04-03T09:36:36;0.93;;;0.70;;
24521;SDS011;12680;57.804;12.190;2023-04-03T09:39:17;4.78;;;0.77;;
24521;SDS011;12680;57.804;12.190;2023-04-03T09:42:01;0.88;;;0.60;;
24521;SDS011;12680;57.804;12.190;2023-04-03T09:44:37;1.25;;;0.70;;
24521;SDS011;12680;57.804;12.190;2023-04-03T09:47:17;1.13;;;0.57;;
24521;SDS011;12680;57.804;12.190;2023-04-03T09:50:25;0.80;;;0.68;;
24521;SDS011;12680;57.804;12.190;2023-04-03T09:52:48;0.85;;;0.55;;
24521;SDS011;12680;57.804;12.190;2023-04-03T09:57:57;2.40;;;0.60;;
24521;SDS011;12680;57.804;12.190;2023-04-03T10:00:28;4.60;;;0.60;;
24521;SDS011;12680;57.804;12.190;2023-04-03T10:02:57;1.38;;;0.40;;
24521;SDS011;12680;57.804;12.190;2023-04-03T10:05:37;2.22;;;0.73;;
24521;SDS011;12680;57.804;12.190;2023-04-03T10:10:40;1.50;;;1.00;;
24521;SDS011;12680;57.804;12.190;2023-04-03T10:13:17;1.95;;;0.50;;
24521;SDS011;12680;57.804;12.190;2023-04-03T10:15:55;1.02;;;0.50;;
24521;SDS011;12680;57.804;12.190;2023-04-03T10:18:39;0.55;;;0.43;;
24521;SDS011;12680;57.804;12.190;2023-04-03T10:21:26;1.17;;;0.50;;
24521;SDS011;12680;57.804;12.190;2023-04-03T10:24:35;0.50;;;0.50;;
24521;SDS011;12680;57.804;12.190;2023-04-03T10:27:11;0.40;;;0.40;;
24521;SDS011;12680;57.804;12.190;2023-04-03T10:29:50;2.22;;;0.57;;
24521;SDS011;12680;57.804;12.190;2023-04-03T10:43:54;5.28;;;0.70;;
24521;SDS011;12680;57.804;12.190;2023-04-03T10:47:00;0.73;;;0.57;;
24521;SDS011;12680;57.804;12.190;2023-04-03T10:49:40;2.47;;;0.75;;
24521;SDS011;12680;57.804;12.190;2023-04-03T10:52:30;2.80;;;0.77;;
24521;SDS011;12680;57.804;12.190;2023-04-03T10:57:39;0.98;;;0.65;;
24521;SDS011;12680;57.804;12.190;2023-04-03T11:00:13;1.60;;;0.60;;
24521;SDS011;12680;57.804;12.190;2023-04-03T11:05:29;3.83;;;0.63;;
24521;SDS011;12680;57.804;12.190;2023-04-03T11:08:05;2.05;;;0.63;;
24521;SDS011;12680;57.804;12.190;2023-04-03T11:10:41;3.38;;;0.70;;
24521;SDS011;12680;57.804;12.190;2023-04-03T11:13:12;3.28;;;0.85;;
24521;SDS011;12680;57.804;12.190;2023-04-03T11:15:43;6.15;;;0.63;;
24521;SDS011;12680;57.804;12.190;2023-04-03T11:20:42;4.78;;;0.93;;
24521;SDS011;12680;57.804;12.190;2023-04-03T11:23:19;2.55;;;0.57;;
24521;SDS011;12680;57.804;12.190;2023-04-03T11:25:53;1.42;;;0.77;;
24521;SDS011;12680;57.804;12.190;2023-04-03T11:28:22;2.20;;;0.57;;
24521;SDS011;12680;57.804;12.190;2023-04-03T11:31:04;1.67;;;0.70;;
24521;SDS011;12680;57.804;12.190;2023-04-03T11:36:19;1.88;;;0.60;;
24521;SDS011;12680;57.804;12.190;2023-04-03T11:39:01;1.65;;;0.55;;
24521;SDS011;12680;57.804;12.190;2023-04-03T11:41:52;1.92;;;0.47;;
24521;SDS011;12680;57.804;12.190;2023-04-03T11:44:37;0.90;;;0.43;;
24521;SDS011;12680;57.804;12.190;2023-04-03T11:47:05;1.52;;;0.60;;
24521;SDS011;12680;57.804;12.190;2023-04-03T11:49:50;1.13;;;0.50;;
24521;SDS011;12680;57.804;12.190;2023-04-03T12:14:20;1.80;;;0.70;;
24521;SDS011;12680;57.804;12.190;2023-04-03T12:19:13;1.75;;;0.65;;
24521;SDS011;12680;57.804;12.190;2023-04-03T12:22:08;2.88;;;1.25;;
24521;SDS011;12680;57.804;12.190;2023-04-03T12:24:42;1.40;;;0.50;;
24521;SDS011;12680;57.804;12.190;2023-04-03T12:33:09;4.82;;;0.95;;
24521;SDS011;12680;57.804;12.190;2023-04-03T12:36:05;1.25;;;0.73;;
24521;SDS011;12680;57.804;12.190;2023-04-03T12:38:48;3.05;;;0.68;;
24521;SDS011;12680;57.804;12.190;2023-04-03T12:41:28;3.17;;;0.70;;
24521;SDS011;12680;57.804;12.190;2023-04-03T12:46:59;0.82;;;0.50;;
24521;SDS011;12680;57.804;12.190;2023-04-03T12:51:54;0.85;;;0.40;;
24521;SDS011;12680;57.804;12.190;2023-04-03T12:57:16;1.50;;;0.60;;
24521;SDS011;12680;57.804;12.190;2023-04-03T12:59:54;0.93;;;0.60;;
24521;SDS011;12680;57.804;12.190;2023-04-03T13:02:22;1.13;;;0.50;;
24521;SDS011;12680;57.804;12.190;2023-04-03T13:04:55;1.13;;;0.50;;
24521;SDS011;12680;57.804;12.190;2023-04-03T13:09:55;0.98;;;0.57;;
24521;SDS011;12680;57.804;12.190;2023-04-03T13:12:23;1.38;;;0.65;;
24521;SDS011;12680;57.804;12.190;2023-04-03T13:14:54;0.60;;;0.40;;
24521;SDS011;12680;57.804;12.190;2023-04-03T13:17:27;1.50;;;0.52;;
24521;SDS011;12680;57.804;12.190;2023-04-03T13:19:54;0.98;;;0.75;;
24521;SDS011;12680;57.804;12.190;2023-04-03T13:22:26;2.13;;;0.70;;
24521;SDS011;12680;57.804;12.190;2023-04-03T13:25:01;2.30;;;0.50;;
24521;SDS011;12680;57.804;12.190;2023-04-03T13:27:30;2.20;;;0.75;;
24521;SDS011;12680;57.804;12.190;2023-04-03T13:29:58;0.90;;;0.50;;
24521;SDS011;12680;57.804;12.190;2023-04-03T13:32:28;3.33;;;0.85;;
24521;SDS011;12680;57.804;12.190;2023-04-03T13:34:56;0.63;;;0.50;;
24521;SDS011;12680;57.804;12.190;2023-04-03T13:37:37;3.42;;;0.68;;
24521;SDS011;12680;57.804;12.190;2023-04-03T13:40:12;0.77;;;0.52;;
24521;SDS011;12680;57.804;12.190;2023-04-03T13:43:01;1.52;;;0.60;;
24521;SDS011;12680;57.804;12.190;2023-04-03T13:45:33;2.38;;;0.50;;
24521;SDS011;12680;57.804;12.190;2023-04-03T13:48:09;0.60;;;0.50;;
24521;SDS011;12680;57.804;12.190;2023-04-03T13:50:51;1.15;;;0.75;;
24521;SDS011;12680;57.804;12.190;2023-04-03T13:53:20;1.30;;;0.57;;
24521;SDS011;12680;57.804;12.190;2023-04-03T13:58:59;1.05;;;0.55;;
24521;SDS011;12680;57.804;12.190;2023-04-03T14:02:13;1.15;;;0.60;;
24521;SDS011;12680;57.804;12.190;2023-04-03T14:07:13;3.53;;;0.90;;
24521;SDS011;12680;57.804;12.190;2023-04-03T14:09:42;2.38;;;1.00;;
24521;SDS011;12680;57.804;12.190;2023-04-03T14:12:14;3.08;;;0.70;;
24521;SDS011;12680;57.804;12.190;2023-04-03T14:14:57;1.30;;;0.80;;
24521;SDS011;12680;57.804;12.190;2023-04-03T14:17:25;3.50;;;0.70;;
24521;SDS011;12680;57.804;12.190;2023-04-03T14:19:54;3.95;;;0.80;;
24521;SDS011;12680;57.804;12.190;2023-04-03T14:22:30;0.65;;;0.52;;
24521;SDS011;12680;57.804;12.190;2023-04-03T14:24:58;1.85;;;0.65;;
24521;SDS011;12680;57.804;12.190;2023-04-03T14:27:36;2.67;;;0.73;;
24521;SDS011;12680;57.804;12.190;2023-04-03T14:30:09;1.08;;;0.60;;
24521;SDS011;12680;57.804;12.190;2023-04-03T14:32:40;2.83;;;0.55;;
24521;SDS011;12680;57.804;12.190;2023-04-03T14:35:08;2.10;;;0.60;;
24521;SDS011;12680;57.804;12.190;2023-04-03T14:37:35;3.10;;;0.82;;
24521;SDS011;12680;57.804;12.190;2023-04-03T14:40:02;0.82;;;0.60;;
24521;SDS011;12680;57.804;12.190;2023-04-03T14:42:32;1.73;;;0.70;;
24521;SDS011;12680;57.804;12.190;2023-04-03T14:45:02;1.52;;;0.70;;
24521;SDS011;12680;57.804;12.190;2023-04-03T14:47:32;1.83;;;0.57;;
24521;SDS011;12680;57.804;12.190;2023-04-03T14:50:00;2.42;;;0.88;;
24521;SDS011;12680;57.804;12.190;2023-04-03T14:52:29;1.83;;;0.43;;
24521;SDS011;12680;57.804;12.190;2023-04-03T14:54:58;1.05;;;0.60;;
24521;SDS011;12680;57.804;12.190;2023-04-03T14:57:27;1.42;;;0.60;;
24521;SDS011;12680;57.804;12.190;2023-04-03T14:59:54;3.38;;;0.70;;
24521;SDS011;12680;57.804;12.190;2023-04-03T15:04:54;1.60;;;0.82;;
24521;SDS011;12680;57.804;12.190;2023-04-03T15:07:22;2.35;;;0.88;;
24521;SDS011;12680;57.804;12.190;2023-04-03T15:09:51;1.35;;;0.60;;
24521;SDS011;12680;57.804;12.190;2023-04-03T15:12:17;1.25;;;0.60;;
24521;SDS011;12680;57.804;12.190;2023-04-03T15:14:44;5.53;;;0.60;;
24521;SDS011;12680;57.804;12.190;2023-04-03T15:17:22;1.20;;;0.70;;
24521;SDS011;12680;57.804;12.190;2023-04-03T15:19:50;1.13;;;0.70;;
24521;SDS011;12680;57.804;12.190;2023-04-03T15:22:18;1.83;;;0.90;;
24521;SDS011;12680;57.804;12.190;2023-04-03T15:24:45;1.08;;;0.50;;
24521;SDS011;12680;57.804;12.190;2023-04-03T15:27:13;2.00;;;0.68;;
24521;SDS011;12680;57.804;12.190;2023-04-03T15:29:41;1.92;;;0.70;;
24521;SDS011;12680;57.804;12.190;2023-04-03T15:32:10;2.97;;;0.80;;
24521;SDS011;12680;57.804;12.190;2023-04-03T15:34:38;0.80;;;0.50;;
24521;SDS011;12680;57.804;12.190;2023-04-03T15:37:05;1.90;;;0.70;;
24521;SDS011;12680;57.804;12.190;2023-04-03T15:39:32;2.38;;;0.70;;
24521;SDS011;12680;57.804;12.190;2023-04-03T15:41:59;1.63;;;0.70;;
24521;SDS011;12680;57.804;12.190;2023-04-03T15:44:32;1.95;;;0.50;;
24521;SDS011;12680;57.804;12.190;2023-04-03T15:47:00;2.47;;;0.95;;
24521;SDS011;12680;57.804;12.190;2023-04-03T15:49:27;4.45;;;0.80;;
24521;SDS011;12680;57.804;12.190;2023-04-03T15:51:54;1.63;;;0.85;;
24521;SDS011;12680;57.804;12.190;2023-04-03T15:54:21;2.60;;;1.00;;
24521;SDS011;12680;57.804;12.190;2023-04-03T15:56:50;1.50;;;0.77;;
24521;SDS011;12680;57.804;12.190;2023-04-03T15:59:17;1.63;;;0.60;;
24521;SDS011;12680;57.804;12.190;2023-04-03T16:01:44;2.83;;;0.80;;
24521;SDS011;12680;57.804;12.190;2023-04-03T16:04:11;2.33;;;0.60;;
24521;SDS011;12680;57.804;12.190;2023-04-03T16:06:40;3.17;;;0.68;;
24521;SDS011;12680;57.804;12.190;2023-04-03T16:09:07;3.30;;;0.82;;
24521;SDS011;12680;57.804;12.190;2023-04-03T16:11:34;4.15;;;0.70;;
24521;SDS011;12680;57.804;12.190;2023-04-03T16:14:03;1.33;;;0.57;;
24521;SDS011;12680;57.804;12.190;2023-04-03T16:16:30;1.60;;;0.77;;
24521;SDS011;12680;57.804;12.190;2023-04-03T16:18:56;1.25;;;0.68;;
24521;SDS011;12680;57.804;12.190;2023-04-03T16:21:23;1.33;;;0.60;;
24521;SDS011;12680;57.804;12.190;2023-04-03T16:23:51;4.90;;;0.88;;
24521;SDS011;12680;57.804;12.190;2023-04-03T16:26:17;8.55;;;1.02;;
24521;SDS011;12680;57.804;12.190;2023-04-03T16:28:44;1.40;;;0.80;;
24521;SDS011;12680;57.804;12.190;2023-04-03T16:31:11;2.13;;;0.85;;